createdAt,value
2019-05-15T00:01:29.111Z,54.21
2019-05-15T00:03:58.633Z,54.21
2019-05-15T00:06:28.583Z,54.20
2019-05-15T00:08:58.895Z,54.21
2019-05-15T00:11:28.815Z,54.25
2019-05-15T00:13:59.000Z,54.23
2019-05-15T00:16:29.025Z,54.18
2019-05-15T00:18:59.082Z,54.14
2019-05-15T00:21:28.942Z,54.23
2019-05-15T00:23:58.769Z,54.33
2019-05-15T00:26:30.020Z,54.44
2019-05-15T00:29:11.553Z,54.55
2019-05-15T00:31:30.426Z,54.66
2019-05-15T00:33:59.677Z,54.75
2019-05-15T00:36:29.036Z,54.86
2019-05-15T00:38:59.050Z,54.92
2019-05-15T00:41:28.731Z,54.94
2019-05-15T00:43:58.463Z,55.06
2019-05-15T00:46:29.028Z,55.12
2019-05-15T00:48:59.170Z,55.13
2019-05-15T00:51:28.699Z,55.31
2019-05-15T00:53:58.914Z,55.51
2019-05-15T00:56:28.595Z,55.64
2019-05-15T00:58:58.837Z,55.67
2019-05-15T01:01:28.688Z,55.62
2019-05-15T01:03:58.712Z,55.56
2019-05-15T01:06:28.573Z,55.63
2019-05-15T01:08:58.840Z,55.76
2019-05-15T01:11:28.715Z,55.86
2019-05-15T01:13:58.504Z,55.94
2019-05-15T01:16:28.226Z,56.05
2019-05-15T01:18:58.538Z,56.04
2019-05-15T01:21:28.050Z,56.10
2019-05-15T01:23:58.934Z,56.11
2019-05-15T01:26:28.922Z,56.03
2019-05-15T01:28:58.497Z,56.06
2019-05-15T01:31:28.540Z,56.11
2019-05-15T01:33:58.451Z,55.99
2019-05-15T01:36:28.741Z,55.92
2019-05-15T01:38:58.539Z,55.96
2019-05-15T01:41:28.298Z,55.91
2019-05-15T01:43:58.195Z,56.00
2019-05-15T01:46:28.627Z,56.01
2019-05-15T01:48:58.589Z,56.03
2019-05-15T01:51:28.616Z,56.01
2019-05-15T01:53:58.504Z,56.13
2019-05-15T01:56:29.266Z,56.32
2019-05-15T01:58:58.786Z,56.36
2019-05-15T02:01:28.477Z,56.39
2019-05-15T02:03:58.986Z,56.42
2019-05-15T02:06:28.641Z,56.54
2019-05-15T02:08:58.695Z,56.61
2019-05-15T02:11:29.000Z,56.63
2019-05-15T02:13:58.758Z,56.65
2019-05-15T02:16:28.632Z,56.80
2019-05-15T02:18:58.409Z,57.05
2019-05-15T02:21:28.806Z,57.16
2019-05-15T02:23:58.793Z,57.18
2019-05-15T02:26:28.463Z,57.26
2019-05-15T02:28:57.864Z,57.27
2019-05-15T02:31:30.270Z,57.37
2019-05-15T02:33:59.027Z,57.52
2019-05-15T02:36:29.405Z,57.64
2019-05-15T02:38:59.782Z,57.72
2019-05-15T02:41:30.146Z,57.84
2019-05-15T02:43:59.530Z,57.83
2019-05-15T02:46:30.047Z,57.85
2019-05-15T02:48:59.498Z,57.88
2019-05-15T02:51:29.988Z,58.02
2019-05-15T02:53:59.618Z,58.16
2019-05-15T02:56:29.500Z,58.28
2019-05-15T02:58:59.904Z,58.39
2019-05-15T03:01:29.557Z,58.45
2019-05-15T03:03:59.567Z,58.49
2019-05-15T03:06:29.829Z,58.63
2019-05-15T03:08:59.771Z,58.75
2019-05-15T03:11:29.652Z,58.83
2019-05-15T03:13:59.374Z,58.80
2019-05-15T03:16:30.465Z,58.74
2019-05-15T03:19:00.068Z,58.76
2019-05-15T03:21:29.664Z,58.82
2019-05-15T03:23:59.541Z,58.87
2019-05-15T03:26:29.827Z,58.84
2019-05-15T03:28:59.265Z,58.77
2019-05-15T03:31:48.847Z,58.73
2019-05-15T03:34:02.731Z,58.75
2019-05-15T03:36:32.160Z,58.72
2019-05-15T03:39:01.630Z,58.59
2019-05-15T03:41:30.850Z,58.58
2019-05-15T03:44:00.161Z,58.63
2019-05-15T03:46:29.818Z,58.73
2019-05-15T03:49:00.389Z,58.81
2019-05-15T03:51:30.143Z,58.71
2019-05-15T03:54:00.404Z,58.51
2019-05-15T03:56:29.909Z,58.44
2019-05-15T03:58:59.833Z,58.37
2019-05-15T04:01:37.905Z,58.23
2019-05-15T04:04:00.794Z,58.18
2019-05-15T04:06:30.054Z,58.08
2019-05-15T04:08:59.318Z,58.17
2019-05-15T04:11:29.533Z,58.10
2019-05-15T04:13:59.560Z,57.98
2019-05-15T04:16:29.599Z,57.91
2019-05-15T04:18:59.625Z,57.82
2019-05-15T04:21:30.440Z,57.69
2019-05-15T04:24:03.796Z,57.56
2019-05-15T04:26:34.694Z,57.50
2019-05-15T04:29:04.136Z,57.37
2019-05-15T04:31:50.202Z,57.25
2019-05-15T04:34:05.091Z,57.14
2019-05-15T04:36:34.657Z,56.99
2019-05-15T04:39:05.682Z,56.81
2019-05-15T04:41:39.338Z,56.64
2019-05-15T04:44:09.979Z,56.47
2019-05-15T04:46:39.301Z,56.21
2019-05-15T04:49:09.393Z,56.04
2019-05-15T04:51:39.267Z,55.82
2019-05-15T04:54:09.688Z,55.56
2019-05-15T04:56:39.929Z,55.31
2019-05-15T04:59:10.338Z,55.11
2019-05-15T05:01:40.551Z,54.87
2019-05-15T05:04:10.133Z,54.57
2019-05-15T05:06:39.448Z,54.22
2019-05-15T05:09:09.339Z,53.99
2019-05-15T05:11:39.079Z,53.74
2019-05-15T05:14:08.711Z,53.50
2019-05-15T05:16:39.409Z,53.45
2019-05-15T05:19:09.085Z,53.28
2019-05-15T05:21:38.679Z,52.99
2019-05-15T05:24:08.300Z,52.85
2019-05-15T05:26:38.254Z,52.56
2019-05-15T05:29:08.501Z,52.25
2019-05-15T05:31:39.078Z,51.98
2019-05-15T05:34:08.659Z,51.80
2019-05-15T05:36:38.611Z,51.64
2019-05-15T05:39:09.625Z,51.49
2019-05-15T05:41:39.537Z,51.31
2019-05-15T05:44:08.768Z,51.14
2019-05-15T05:46:39.732Z,50.84
2019-05-15T05:49:09.293Z,50.63
2019-05-15T05:51:38.838Z,50.44
2019-05-15T05:54:08.510Z,50.32
2019-05-15T05:56:38.067Z,50.11
2019-05-15T05:59:09.381Z,49.84
2019-05-15T06:01:43.718Z,49.77
2019-05-15T06:04:09.518Z,49.84
2019-05-15T06:06:39.087Z,49.53
2019-05-15T06:09:09.185Z,49.31
2019-05-15T06:11:38.728Z,49.13
2019-05-15T06:14:08.748Z,49.01
2019-05-15T06:16:38.746Z,48.76
2019-05-15T06:19:08.408Z,48.49
2019-05-15T06:21:53.410Z,48.24
2019-05-15T06:24:13.148Z,48.08
2019-05-15T06:26:40.257Z,48.00
2019-05-15T06:29:09.506Z,47.92
2019-05-15T06:31:38.961Z,47.72
2019-05-15T06:34:08.472Z,47.61
2019-05-15T06:36:39.263Z,47.71
2019-05-15T06:39:08.744Z,47.58
2019-05-15T06:41:39.093Z,47.41
2019-05-15T06:44:08.465Z,47.26
2019-05-15T06:46:39.314Z,47.35
2019-05-15T06:49:08.787Z,47.29
2019-05-15T06:51:38.061Z,47.12
2019-05-15T06:54:08.719Z,47.01
2019-05-15T06:56:39.016Z,46.84
2019-05-15T06:59:08.910Z,46.68
2019-05-15T07:01:38.787Z,46.43
2019-05-15T07:04:08.507Z,46.36
2019-05-15T07:06:38.306Z,46.42
2019-05-15T07:09:09.405Z,46.30
2019-05-15T07:11:38.994Z,46.36
2019-05-15T07:14:08.868Z,46.04
2019-05-15T07:16:39.061Z,45.85
2019-05-15T07:19:09.085Z,46.05
2019-05-15T07:21:38.970Z,46.00
2019-05-15T07:24:09.149Z,45.75
2019-05-15T07:26:39.291Z,46.10
2019-05-15T07:29:08.818Z,45.66
2019-05-15T07:31:38.525Z,44.54
2019-05-15T07:34:08.589Z,43.33
2019-05-15T07:36:39.054Z,42.60
2019-05-15T07:39:09.155Z,41.73
2019-05-15T07:41:39.216Z,40.96
2019-05-15T07:44:08.554Z,40.11
2019-05-15T07:46:38.342Z,39.42
2019-05-15T07:49:09.131Z,38.76
2019-05-15T07:51:38.590Z,38.23
2019-05-15T07:54:09.237Z,37.95
2019-05-15T07:56:38.667Z,37.86
2019-05-15T07:59:08.109Z,37.61
2019-05-15T08:01:38.611Z,37.16
2019-05-15T08:04:22.762Z,36.83
2019-05-15T08:06:39.373Z,36.76
2019-05-15T08:09:08.916Z,36.42
2019-05-15T08:11:39.105Z,35.81
2019-05-15T08:14:09.210Z,35.17
2019-05-15T08:16:39.512Z,34.86
2019-05-15T08:19:08.952Z,34.52
2019-05-15T08:21:38.695Z,34.22
2019-05-15T08:24:08.657Z,33.95
2019-05-15T08:26:41.555Z,33.19
2019-05-15T08:29:09.906Z,32.88
2019-05-15T08:31:39.262Z,32.67
2019-05-15T08:34:13.593Z,32.41
2019-05-15T08:36:39.779Z,31.84
2019-05-15T08:39:09.034Z,31.97
2019-05-15T08:41:39.122Z,31.64
2019-05-15T08:44:08.918Z,31.38
2019-05-15T08:46:38.676Z,30.97
2019-05-15T08:49:09.199Z,30.50
2019-05-15T08:51:38.956Z,30.43
2019-05-15T08:54:08.651Z,29.75
2019-05-15T08:56:39.416Z,29.67
2019-05-15T08:59:09.124Z,29.17
2019-05-15T09:01:38.487Z,28.67
2019-05-15T09:04:08.910Z,28.63
2019-05-15T09:06:41.347Z,28.45
2019-05-15T09:09:09.869Z,28.60
2019-05-15T09:11:39.550Z,28.34
2019-05-15T09:14:08.962Z,27.54
2019-05-15T09:16:38.858Z,26.75
2019-05-15T09:19:08.645Z,27.07
2019-05-15T09:21:38.772Z,26.81
2019-05-15T09:24:09.307Z,26.58
2019-05-15T09:26:40.420Z,26.15
2019-05-15T09:29:09.894Z,26.17
2019-05-15T09:31:39.374Z,26.49
2019-05-15T09:34:09.298Z,26.12
2019-05-15T09:36:42.307Z,25.95
2019-05-15T09:39:13.250Z,25.61
2019-05-15T09:41:41.150Z,25.25
2019-05-15T09:44:10.370Z,24.95
2019-05-15T09:46:39.853Z,24.60
2019-05-15T09:49:09.182Z,24.95
2019-05-15T09:51:38.691Z,24.78
2019-05-15T09:54:08.429Z,24.38
2019-05-15T09:56:38.505Z,24.20
2019-05-15T09:59:08.953Z,23.96
2019-05-15T10:01:39.893Z,24.19
2019-05-15T10:04:09.190Z,23.96
2019-05-15T10:06:39.206Z,23.34
2019-05-15T10:09:09.370Z,23.49
2019-05-15T10:11:38.601Z,23.67
2019-05-15T10:14:09.785Z,23.81
2019-05-15T10:16:39.134Z,24.22
2019-05-15T10:19:08.987Z,24.25
2019-05-15T10:21:39.924Z,24.23
2019-05-15T10:24:09.763Z,23.78
2019-05-15T10:26:39.429Z,23.50
2019-05-15T10:29:09.270Z,22.84
2019-05-15T10:31:39.065Z,22.77
2019-05-15T10:34:09.166Z,22.77
2019-05-15T10:36:38.956Z,22.53
2019-05-15T10:39:09.036Z,22.85
2019-05-15T10:41:38.924Z,23.18
2019-05-15T10:44:09.375Z,22.63
2019-05-15T10:46:38.847Z,22.69
2019-05-15T10:49:08.777Z,22.30
2019-05-15T10:51:39.649Z,22.31
2019-05-15T10:54:09.212Z,22.20
2019-05-15T10:56:38.725Z,22.22
2019-05-15T10:59:08.628Z,22.55
2019-05-15T11:01:38.803Z,23.09
2019-05-15T11:04:09.201Z,22.82
2019-05-15T11:06:38.946Z,22.74
2019-05-15T11:09:08.683Z,22.93
2019-05-15T11:11:37.921Z,23.18
2019-05-15T11:14:09.161Z,23.45
2019-05-15T11:16:39.211Z,24.35
2019-05-15T11:19:08.624Z,23.47
2019-05-15T11:21:38.121Z,23.31
2019-05-15T11:24:08.724Z,23.64
2019-05-15T11:26:39.055Z,23.80
2019-05-15T11:29:09.649Z,23.00
2019-05-15T11:31:39.375Z,22.99
2019-05-15T11:34:09.490Z,23.02
2019-05-15T11:36:38.945Z,23.06
2019-05-15T11:39:08.542Z,23.22
2019-05-15T11:41:38.797Z,23.11
2019-05-15T11:44:08.530Z,23.06
2019-05-15T11:46:39.052Z,23.06
2019-05-15T11:49:10.246Z,23.09
2019-05-15T11:51:39.473Z,23.31
2019-05-15T11:54:08.959Z,22.97
2019-05-15T11:56:39.260Z,22.86
2019-05-15T11:59:10.154Z,22.10
2019-05-15T12:01:39.617Z,21.89
2019-05-15T12:04:09.437Z,22.30
2019-05-15T12:06:39.228Z,22.61
2019-05-15T12:09:09.582Z,22.65
2019-05-15T12:11:40.976Z,22.67
2019-05-15T12:14:24.375Z,22.58
2019-05-15T12:17:10.364Z,22.56
2019-05-15T12:19:53.994Z,22.76
2019-05-15T12:22:12.518Z,21.82
2019-05-15T12:24:42.121Z,21.44
2019-05-15T12:27:17.682Z,21.36
2019-05-15T12:29:43.002Z,21.41
2019-05-15T12:34:43.258Z,21.62
2019-05-15T12:37:12.715Z,21.84
2019-05-15T12:37:59.046Z,21.46
2019-05-15T12:39:42.026Z,21.87
2019-05-15T12:59:49.216Z,21.97
2019-05-15T13:02:18.766Z,21.54
2019-05-15T13:04:48.038Z,21.83
2019-05-15T13:07:19.872Z,22.13
2019-05-15T13:09:48.720Z,22.12
2019-05-15T13:12:18.390Z,21.68
2019-05-15T13:14:48.376Z,21.62
2019-05-15T13:17:18.355Z,21.34
2019-05-15T13:19:48.382Z,21.42
2019-05-15T13:22:24.366Z,20.92
2019-05-15T13:24:49.080Z,20.62
2019-05-15T13:27:18.495Z,20.67
2019-05-15T13:29:48.652Z,20.34
2019-05-15T13:32:18.976Z,20.33
2019-05-15T13:34:48.990Z,20.15
2019-05-15T13:37:26.840Z,20.01
2019-05-15T13:39:49.769Z,19.45
2019-05-15T13:42:18.982Z,19.78
2019-05-15T13:44:48.223Z,19.98
2019-05-15T13:47:17.806Z,20.32
2019-05-15T13:49:48.046Z,19.66
2019-05-15T13:52:18.794Z,19.42
2019-05-15T13:54:48.466Z,19.79
2019-05-15T13:57:18.124Z,19.68
2019-05-15T13:59:48.350Z,19.32
2019-05-15T14:02:18.669Z,19.14
2019-05-15T14:04:49.083Z,18.96
2019-05-15T14:07:19.274Z,18.85
2019-05-15T14:09:49.276Z,19.21
2019-05-15T14:12:18.508Z,19.14
2019-05-15T14:14:49.009Z,19.42
2019-05-15T14:17:18.550Z,20.00
2019-05-15T14:19:48.655Z,20.11
2019-05-15T14:22:18.043Z,19.46
2019-05-15T14:24:48.912Z,19.63
2019-05-15T14:27:19.544Z,19.13
2019-05-15T14:29:49.099Z,19.11
2019-05-15T14:32:33.950Z,19.01
2019-05-15T14:34:51.187Z,18.39
2019-05-15T14:37:20.516Z,18.35
2019-05-15T14:39:52.292Z,18.68
2019-05-15T14:42:21.030Z,18.66
2019-05-15T14:44:50.832Z,18.42
2019-05-15T14:47:20.094Z,18.71
2019-05-15T14:49:49.846Z,18.77
2019-05-15T14:52:19.320Z,18.50
2019-05-15T14:54:49.057Z,18.48
2019-05-15T14:57:18.518Z,18.38
2019-05-15T14:59:48.814Z,18.26
2019-05-15T15:02:19.049Z,18.76
2019-05-15T15:04:48.767Z,18.82
2019-05-15T15:07:18.883Z,18.75
2019-05-15T15:09:48.300Z,18.67
2019-05-15T15:12:18.892Z,18.41
2019-05-15T15:14:49.526Z,18.21
2019-05-15T15:17:19.607Z,18.22
2019-05-15T15:19:51.762Z,18.08
2019-05-15T15:22:20.279Z,18.29
2019-05-15T15:24:49.497Z,18.07
2019-05-15T15:27:18.988Z,18.42
2019-05-15T15:29:48.418Z,18.97
2019-05-15T15:32:17.638Z,19.14
2019-05-15T15:34:47.979Z,19.22
2019-05-15T15:37:17.778Z,19.16
2019-05-15T15:39:48.162Z,18.85
2019-05-15T15:42:17.494Z,18.99
2019-05-15T15:44:48.870Z,19.00
2019-05-15T15:47:17.985Z,18.93
2019-05-15T15:49:47.959Z,19.03
2019-05-15T15:52:18.175Z,18.90
2019-05-15T15:54:47.838Z,18.81
2019-05-15T15:57:19.178Z,18.85
2019-05-15T15:59:49.204Z,18.82
2019-05-15T16:02:18.811Z,19.11
2019-05-15T16:04:48.468Z,18.86
2019-05-15T16:07:18.325Z,18.85
2019-05-15T16:09:48.319Z,19.23
2019-05-15T16:12:18.545Z,19.34
2019-05-15T16:14:48.878Z,19.50
2019-05-15T16:17:18.316Z,19.40
2019-05-15T16:19:49.161Z,19.33
2019-05-15T16:22:19.070Z,19.38
2019-05-15T16:24:49.226Z,19.16
2019-05-15T16:27:18.550Z,19.29
2019-05-15T16:29:48.157Z,19.58
2019-05-15T16:32:21.544Z,19.69
2019-05-15T16:34:48.378Z,19.86
2019-05-15T16:37:18.856Z,19.83
2019-05-15T16:39:48.800Z,19.83
2019-05-15T16:42:18.449Z,20.11
2019-05-15T16:44:49.509Z,20.45
2019-05-15T16:47:19.228Z,20.48
2019-05-15T16:49:48.700Z,20.43
2019-05-15T16:52:18.458Z,20.50
2019-05-15T16:54:48.961Z,20.35
2019-05-15T16:57:18.581Z,20.15
2019-05-15T16:59:48.211Z,20.60
2019-05-15T17:02:18.877Z,21.69
2019-05-15T17:04:48.883Z,21.75
2019-05-15T17:07:18.544Z,21.94
2019-05-15T17:09:48.162Z,22.82
2019-05-15T17:12:17.497Z,23.25
2019-05-15T17:14:48.627Z,23.65
2019-05-15T17:17:18.458Z,24.13
2019-05-15T17:19:48.542Z,24.46
2019-05-15T17:22:18.541Z,24.82
2019-05-15T17:24:48.795Z,25.30
2019-05-15T17:27:18.685Z,25.98
2019-05-15T17:29:49.097Z,26.31
2019-05-15T17:32:18.610Z,26.76
2019-05-15T17:34:48.778Z,26.97
2019-05-15T17:37:18.363Z,27.22
2019-05-15T17:39:48.530Z,27.44
2019-05-15T17:42:18.334Z,27.71
2019-05-15T17:44:48.795Z,28.03
2019-05-15T17:47:18.290Z,28.28
2019-05-15T17:49:48.171Z,28.69
2019-05-15T17:52:18.377Z,29.02
2019-05-15T17:54:49.147Z,29.15
2019-05-15T17:57:19.458Z,29.25
2019-05-15T17:59:49.149Z,29.41
2019-05-15T18:02:18.945Z,29.68
2019-05-15T18:04:48.730Z,29.96
2019-05-15T18:07:18.117Z,30.14
2019-05-15T18:09:53.939Z,30.51
2019-05-15T18:12:21.510Z,30.65
2019-05-15T18:14:51.622Z,30.75
2019-05-15T18:17:23.301Z,30.98
2019-05-15T18:19:52.787Z,31.22
2019-05-15T18:22:22.107Z,31.51
2019-05-15T18:24:51.606Z,31.63
2019-05-15T18:27:20.868Z,31.80
2019-05-15T18:29:50.093Z,31.96
2019-05-15T18:32:19.410Z,32.08
2019-05-15T18:34:48.974Z,32.48
2019-05-15T18:37:23.871Z,32.60
2019-05-15T18:40:02.428Z,32.68
2019-05-15T18:42:24.167Z,32.84
2019-05-15T18:44:53.389Z,33.17
2019-05-15T18:47:22.649Z,33.45
2019-05-15T18:50:04.281Z,33.75
2019-05-15T18:52:22.926Z,33.75
2019-05-15T18:54:52.690Z,34.15
2019-05-15T18:57:22.244Z,34.23
2019-05-15T18:59:51.542Z,34.40
2019-05-15T19:02:20.918Z,34.66
2019-05-15T19:04:50.425Z,34.88
2019-05-15T19:07:19.744Z,34.99
2019-05-15T19:09:49.230Z,35.17
2019-05-15T19:12:18.637Z,35.38
2019-05-15T19:17:23.598Z,35.66
2019-05-15T19:19:56.202Z,35.73
2019-05-15T19:25:01.590Z,36.13
2019-05-15T19:27:31.040Z,36.40
2019-05-15T19:30:01.586Z,36.68
2019-05-15T19:32:30.984Z,36.94
2019-05-15T19:35:00.260Z,37.25
2019-05-15T19:37:29.521Z,37.30
2019-05-15T19:39:59.400Z,37.40
2019-05-15T19:42:28.812Z,37.47
2019-05-15T19:44:59.028Z,37.39
2019-05-15T19:47:30.220Z,37.53
2019-05-15T19:49:59.532Z,37.71
2019-05-15T19:52:28.761Z,37.92
2019-05-15T19:54:58.448Z,37.98
2019-05-15T19:57:28.771Z,38.07
2019-05-15T19:59:58.238Z,38.27
2019-05-15T20:02:28.605Z,38.41
2019-05-15T20:04:58.360Z,38.51
2019-05-15T20:07:28.588Z,38.88
2019-05-15T20:09:58.502Z,39.14
2019-05-15T20:12:28.086Z,39.46
2019-05-15T20:14:58.327Z,39.61
2019-05-15T20:17:27.956Z,39.70
2019-05-15T20:19:58.123Z,39.82
2019-05-15T20:22:28.376Z,40.01
2019-05-15T20:24:58.774Z,40.05
2019-05-15T20:27:28.576Z,40.24
2019-05-15T20:29:57.811Z,40.30
2019-05-15T20:32:27.803Z,40.49
2019-05-15T20:34:57.798Z,40.73
2019-05-15T20:37:39.133Z,40.87
2019-05-15T20:40:09.359Z,41.11
2019-05-15T20:42:39.017Z,41.37
2019-05-15T20:45:12.397Z,42.38
2019-05-15T20:47:41.049Z,42.32
2019-05-15T20:50:12.483Z,42.27
2019-05-15T20:52:42.834Z,42.34
2019-05-15T20:55:12.077Z,42.57
2019-05-15T20:57:41.336Z,42.77
2019-05-15T21:00:13.898Z,42.89
2019-05-15T21:02:43.405Z,43.02
2019-05-15T21:05:12.736Z,43.20
2019-05-15T21:07:43.393Z,43.33
2019-05-15T21:10:13.293Z,43.47
2019-05-15T21:12:42.615Z,43.60
2019-05-15T21:15:12.173Z,43.69
2019-05-15T21:17:43.036Z,43.74
2019-05-15T21:20:13.727Z,43.72
2019-05-15T21:22:43.019Z,43.73
2019-05-15T21:25:12.362Z,43.77
2019-05-15T21:27:43.719Z,43.85
2019-05-15T21:30:13.655Z,44.10
2019-05-15T21:32:43.048Z,44.24
2019-05-15T21:35:12.378Z,44.31
2019-05-15T21:37:41.636Z,44.43
2019-05-15T21:40:11.025Z,44.76
2019-05-15T21:42:41.828Z,45.03
2019-05-15T21:45:14.455Z,45.12
2019-05-15T21:47:43.021Z,45.37
2019-05-15T21:50:12.470Z,45.43
2019-05-15T21:52:42.211Z,45.60
2019-05-15T21:55:11.629Z,45.71
2019-05-15T21:57:43.828Z,45.84
2019-05-15T22:00:18.558Z,45.88
2019-05-15T22:02:49.312Z,45.94
2019-05-15T22:05:19.134Z,45.99
2019-05-15T22:07:51.181Z,46.03
2019-05-15T22:10:20.110Z,46.15
2019-05-15T22:12:49.717Z,46.30
2019-05-15T22:15:19.947Z,46.46
2019-05-15T22:17:49.655Z,46.65
2019-05-15T22:20:20.823Z,46.71
2019-05-15T22:22:50.786Z,46.85
2019-05-15T22:25:20.400Z,47.15
2019-05-15T22:27:49.711Z,47.62
2019-05-15T22:30:20.065Z,47.90
2019-05-15T22:32:49.733Z,48.20
2019-05-15T22:35:19.860Z,48.46
2019-05-15T22:37:49.573Z,48.58
2019-05-15T22:40:19.223Z,48.80
2019-05-15T22:42:48.932Z,49.02
2019-05-15T22:45:19.052Z,49.17
2019-05-15T22:47:48.981Z,49.35
2019-05-15T22:50:19.088Z,49.36
2019-05-15T22:52:49.383Z,49.47
2019-05-15T22:55:19.039Z,49.54
2019-05-15T22:57:48.387Z,49.60
2019-05-15T23:00:18.900Z,49.79
2019-05-15T23:02:49.077Z,49.97
2019-05-15T23:05:27.911Z,50.21
2019-05-15T23:07:49.456Z,50.55
2019-05-15T23:10:19.477Z,50.84
2019-05-15T23:12:48.789Z,51.02
2019-05-15T23:15:18.990Z,51.07
2019-05-15T23:17:48.864Z,51.33
2019-05-15T23:20:18.204Z,51.56
2019-05-15T23:22:47.516Z,51.63
2019-05-15T23:25:18.195Z,51.81
2019-05-15T23:27:48.409Z,51.88
2019-05-15T23:30:18.597Z,51.99
2019-05-15T23:32:48.825Z,52.08
2019-05-15T23:35:18.585Z,52.10
2019-05-15T23:37:48.594Z,52.17
2019-05-15T23:40:18.237Z,52.23
2019-05-15T23:42:49.069Z,52.27
2019-05-15T23:45:18.556Z,52.45
2019-05-15T23:47:48.595Z,52.58
2019-05-15T23:50:18.277Z,52.64
2019-05-15T23:52:48.750Z,52.74
2019-05-15T23:55:19.113Z,52.85
2019-05-15T23:57:48.773Z,53.06
